Time;durP1;ratioP1;P1;durP2;ratioP2;P2;SDS_P1;SDS_P2;PMS_P1;PMS_P2;Temp;Humidity;BMP_temperature;BMP_pressure;BME280_temperature;BME280_humidity;BME280_pressure;Samples;Min_cycle;Max_cycle;Signal;HPM_P1;HPM_P2
2022/11/21 02:41:33;;;;;;;7.17;2.47;;;4.40;99.90;;;;;;6269910;22;20464;-74
2022/11/21 02:51:46;;;;;;;1.77;1.20;;;4.50;99.90;;;;;;6370655;22;21006;-73
2022/11/21 02:54:13;;;;;;;1.10;0.90;;;4.70;99.90;;;;;;6397286;22;20402;-73
2022/11/21 02:56:41;;;;;;;1.03;0.93;;;4.60;99.90;;;;;;6398341;22;20481;-73
2022/11/21 02:59:08;;;;;;;1.00;0.90;;;4.60;99.90;;;;;;6398186;22;20449;-70
2022/11/21 03:01:35;;;;;;;2.17;1.20;;;4.60;99.90;;;;;;6397270;22;20431;-74
2022/11/21 03:04:09;;;;;;;3.03;1.10;;;4.60;99.90;;;;;;6397897;22;20440;-71
2022/11/21 03:06:36;;;;;;;2.80;1.13;;;4.60;99.90;;;;;;6397733;22;20426;-71
2022/11/21 03:09:02;;;;;;;1.93;1.00;;;4.60;99.90;;;;;;6397793;22;20455;-71
2022/11/21 03:11:29;;;;;;;1.27;1.10;;;4.60;99.90;;;;;;6397905;22;20450;-71
2022/11/21 03:14:02;;;;;;;1.00;0.90;;;4.60;99.90;;;;;;6397908;22;20429;-71
2022/11/21 03:16:28;;;;;;;1.10;1.00;;;4.60;99.90;;;;;;6398200;22;20393;-73
2022/11/21 03:18:56;;;;;;;1.93;1.00;;;4.60;99.90;;;;;;6397333;22;20989;-71
2022/11/21 03:21:23;;;;;;;1.07;0.97;;;4.60;99.90;;;;;;6397744;22;20930;-72
2022/11/21 03:23:50;;;;;;;1.10;0.80;;;4.60;99.90;;;;;;6397884;22;20760;-71
2022/11/21 03:26:21;;;;;;;3.57;1.13;;;4.60;99.90;;;;;;6398253;22;20423;-71
2022/11/21 03:28:48;;;;;;;1.47;1.20;;;4.50;99.90;;;;;;6396956;22;20893;-71
2022/11/21 03:31:16;;;;;;;1.53;1.17;;;4.50;99.90;;;;;;6397228;22;20967;-72
2022/11/21 03:33:43;;;;;;;1.00;0.90;;;4.50;99.90;;;;;;6397450;22;21101;-72
2022/11/21 03:36:10;;;;;;;2.17;1.30;;;4.40;99.90;;;;;;6397272;22;20390;-72
2022/11/21 03:38:46;;;;;;;4.57;1.10;;;5.00;99.90;;;;;;6397537;22;20434;-72
2022/11/21 03:43:53;;;;;;;1.30;1.20;;;4.30;99.90;;;;;;6396711;22;20398;-72
2022/11/21 03:46:22;;;;;;;3.00;1.10;;;4.20;99.90;;;;;;6396735;22;20419;-72
2022/11/21 03:48:50;;;;;;;1.10;1.00;;;4.50;99.90;;;;;;6397170;22;20425;-72
2022/11/21 03:51:18;;;;;;;1.20;0.90;;;4.20;99.90;;;;;;6397040;22;20486;-72
2022/11/21 03:53:45;;;;;;;1.37;0.87;;;4.10;99.90;;;;;;6397053;22;20470;-72
2022/11/21 03:56:13;;;;;;;1.67;1.10;;;4.20;99.90;;;;;;6397232;22;20405;-72
2022/11/21 03:58:48;;;;;;;1.53;1.13;;;4.20;99.90;;;;;;6397384;22;20445;-72
2022/11/21 04:01:21;;;;;;;1.80;1.00;;;3.90;99.90;;;;;;6396784;22;20446;-72
2022/11/21 04:03:51;;;;;;;1.00;0.90;;;4.20;99.90;;;;;;6397031;22;20409;-72
2022/11/21 04:06:21;;;;;;;2.00;1.10;;;4.20;99.90;;;;;;6396966;22;20398;-72
2022/11/21 04:08:48;;;;;;;1.40;1.10;;;4.20;99.90;;;;;;6397332;22;20398;-72
2022/11/21 04:11:15;;;;;;;2.50;1.10;;;4.20;99.90;;;;;;6396866;22;20430;-72
2022/11/21 04:13:42;;;;;;;1.40;1.17;;;4.30;99.90;;;;;;6397249;22;20434;-72
2022/11/21 04:16:09;;;;;;;0.97;0.87;;;4.30;99.90;;;;;;6396594;22;20479;-72
2022/11/21 04:18:37;;;;;;;1.00;0.90;;;4.40;99.90;;;;;;6397238;22;20520;-72
2022/11/21 04:21:08;;;;;;;2.17;1.27;;;4.30;99.90;;;;;;6397306;22;20455;-72
2022/11/21 04:23:35;;;;;;;3.43;1.53;;;4.20;99.90;;;;;;6397359;22;20417;-72
2022/11/21 04:26:02;;;;;;;1.20;1.00;;;4.40;99.90;;;;;;6397150;22;20424;-72
2022/11/21 04:28:35;;;;;;;1.50;1.10;;;4.40;99.90;;;;;;6397144;22;20417;-72
2022/11/21 04:31:03;;;;;;;1.57;1.40;;;4.40;99.90;;;;;;6396850;22;20863;-72
2022/11/21 04:33:30;;;;;;;2.33;1.60;;;4.20;99.90;;;;;;6396301;22;20418;-73
2022/11/21 04:35:57;;;;;;;1.83;0.97;;;4.40;99.90;;;;;;6397003;22;20671;-72
2022/11/21 04:38:25;;;;;;;2.10;1.30;;;4.40;99.90;;;;;;6396852;22;20442;-72
2022/11/21 04:40:54;;;;;;;2.33;1.27;;;4.50;99.90;;;;;;6397081;22;20658;-72
2022/11/21 04:43:27;;;;;;;1.47;1.20;;;4.50;99.90;;;;;;6396892;22;20467;-72
2022/11/21 04:45:54;;;;;;;2.70;1.00;;;4.50;99.90;;;;;;6397288;22;20402;-72
2022/11/21 04:48:21;;;;;;;2.13;1.10;;;4.50;99.90;;;;;;6396595;22;20466;-72
2022/11/21 04:50:48;;;;;;;1.83;1.13;;;4.40;99.90;;;;;;6396407;22;20409;-72
2022/11/21 04:53:15;;;;;;;1.60;1.03;;;4.40;99.90;;;;;;6396299;22;20486;-71
2022/11/21 04:55:43;;;;;;;4.90;1.10;;;4.30;99.90;;;;;;6396874;22;20406;-72
2022/11/21 04:58:16;;;;;;;1.00;0.90;;;4.30;99.90;;;;;;6397059;22;20441;-72
2022/11/21 05:00:43;;;;;;;1.93;1.30;;;4.20;99.90;;;;;;6396448;22;20405;-73
2022/11/21 05:03:10;;;;;;;1.37;1.00;;;4.20;99.90;;;;;;6396894;22;20458;-73
2022/11/21 05:05:37;;;;;;;1.83;1.07;;;4.10;99.90;;;;;;6396582;22;20406;-73
2022/11/21 05:08:04;;;;;;;4.93;1.13;;;4.20;99.90;;;;;;6396451;22;20738;-73
2022/11/21 05:13:19;;;;;;;1.20;1.03;;;4.10;99.90;;;;;;6397379;22;20778;-72
2022/11/21 05:13:27;;;;;;;2.60;1.60;;;4.20;99.90;;;;;;6396108;22;20469;-73
2022/11/21 05:15:57;;;;;;;2.80;1.10;;;4.10;99.90;;;;;;6396521;22;20397;-72
2022/11/21 05:18:24;;;;;;;6.40;1.30;;;4.10;99.90;;;;;;6396836;22;20501;-73
2022/11/21 05:20:51;;;;;;;1.30;1.07;;;4.10;99.90;;;;;;6395735;22;20495;-73
2022/11/21 05:23:18;;;;;;;7.07;1.30;;;4.20;99.90;;;;;;6396650;22;20458;-72
2022/11/21 05:25:49;;;;;;;1.10;0.93;;;4.00;99.90;;;;;;6397124;22;20425;-73
2022/11/21 05:28:16;;;;;;;1.10;1.00;;;4.20;99.90;;;;;;6396669;22;20810;-72
2022/11/21 05:30:44;;;;;;;1.93;1.30;;;4.00;99.90;;;;;;6396338;22;20471;-73
2022/11/21 05:33:11;;;;;;;3.63;1.53;;;4.00;99.90;;;;;;6396570;22;20898;-72
2022/11/21 05:35:38;;;;;;;1.30;1.00;;;3.90;99.90;;;;;;6396357;22;20400;-72
2022/11/21 05:38:05;;;;;;;2.37;1.17;;;3.90;99.90;;;;;;6396049;22;20533;-73
2022/11/21 05:45:58;;;;;;;2.90;1.17;;;3.90;99.90;;;;;;6396447;22;20369;-72
2022/11/21 05:48:25;;;;;;;3.87;1.20;;;3.90;99.90;;;;;;6395409;22;20431;-71
2022/11/21 05:50:58;;;;;;;1.90;1.30;;;3.80;99.90;;;;;;6395268;22;20723;-71
2022/11/21 05:53:25;;;;;;;1.70;1.10;;;3.90;99.90;;;;;;6393791;22;20899;-73
2022/11/21 05:55:52;;;;;;;1.63;1.10;;;3.80;99.90;;;;;;6394126;22;20401;-71
2022/11/21 05:58:19;;;;;;;1.40;1.03;;;3.90;99.90;;;;;;6394186;22;20468;-75
2022/11/21 06:00:46;;;;;;;2.20;0.97;;;3.90;99.90;;;;;;6393914;22;20413;-73
2022/11/21 06:03:25;;;;;;;2.10;1.10;;;5.10;99.90;;;;;;6395050;22;20632;-72
2022/11/21 06:05:52;;;;;;;1.50;1.33;;;3.90;99.90;;;;;;6394748;22;20421;-72
2022/11/21 06:08:19;;;;;;;2.30;1.37;;;3.90;99.90;;;;;;6394807;22;20894;-72
2022/11/21 06:10:46;;;;;;;1.57;1.00;;;3.90;99.90;;;;;;6395484;22;20405;-72
2022/11/21 06:13:23;;;;;;;2.23;1.20;;;3.80;99.90;;;;;;6394940;22;20409;-72
2022/11/21 06:15:55;;;;;;;1.00;0.90;;;3.90;99.90;;;;;;6395244;22;20452;-74
2022/11/21 06:18:25;;;;;;;1.50;1.30;;;3.90;99.90;;;;;;6400370;22;20709;-74
2022/11/21 06:20:52;;;;;;;1.20;0.90;;;4.60;99.90;;;;;;6403610;22;20401;-72
2022/11/21 06:23:21;;;;;;;2.50;1.50;;;3.90;99.90;;;;;;6403540;22;20401;-75
2022/11/21 06:25:48;;;;;;;2.00;1.30;;;4.00;99.90;;;;;;6402937;22;20878;-72
2022/11/21 06:28:14;;;;;;;1.63;1.30;;;4.10;99.90;;;;;;6400809;22;20458;-71
2022/11/21 06:30:41;;;;;;;2.27;1.13;;;4.20;99.90;;;;;;6397370;22;20969;-71
2022/11/21 06:33:12;;;;;;;1.83;1.10;;;4.00;99.90;;;;;;6396964;22;20480;-71
2022/11/21 06:35:46;;;;;;;1.77;1.43;;;4.00;99.90;;;;;;6398842;22;20386;-71
2022/11/21 06:38:13;;;;;;;1.00;0.90;;;4.00;99.90;;;;;;6398893;22;20490;-71
2022/11/21 06:40:40;;;;;;;2.40;1.30;;;4.00;99.90;;;;;;6397752;22;20467;-71
2022/11/21 06:43:07;;;;;;;3.73;1.37;;;4.10;99.90;;;;;;6398332;22;20402;-72
2022/11/21 06:45:33;;;;;;;1.37;1.27;;;4.10;99.90;;;;;;6397963;22;20890;-72
2022/11/21 06:48:02;;;;;;;2.03;1.20;;;4.10;99.90;;;;;;6398328;22;20413;-72
2022/11/21 06:50:30;;;;;;;1.40;1.27;;;4.20;99.90;;;;;;6397516;22;20978;-71
2022/11/21 06:52:59;;;;;;;2.60;1.27;;;4.10;99.90;;;;;;6397172;22;21202;-72
2022/11/21 06:55:28;;;;;;;1.53;1.43;;;4.20;99.90;;;;;;6398012;22;20958;-72
2022/11/21 06:57:57;;;;;;;1.20;0.90;;;4.20;99.90;;;;;;6398272;22;20405;-72
2022/11/21 07:00:24;;;;;;;1.50;1.20;;;4.20;99.90;;;;;;6397727;22;20466;-72
2022/11/21 07:02:51;;;;;;;1.33;1.00;;;4.20;99.90;;;;;;6397659;22;20432;-72
2022/11/21 07:05:18;;;;;;;3.20;1.00;;;4.20;99.90;;;;;;6397200;22;20414;-72
2022/11/21 07:07:45;;;;;;;1.10;1.00;;;4.00;99.90;;;;;;6397868;22;20449;-73
2022/11/21 07:10:14;;;;;;;2.10;1.00;;;4.10;99.90;;;;;;6398102;22;20418;-72
2022/11/21 07:15:25;;;;;;;2.47;0.90;;;4.10;99.90;;;;;;6397598;22;20377;-74
2022/11/21 07:17:52;;;;;;;3.43;1.10;;;4.10;99.90;;;;;;6398330;22;20401;-73
2022/11/21 07:20:19;;;;;;;1.40;1.00;;;4.10;99.90;;;;;;6396908;22;20434;-71
2022/11/21 07:22:46;;;;;;;1.40;0.70;;;3.90;99.90;;;;;;6397091;22;20493;-70
2022/11/21 07:25:21;;;;;;;0.90;0.80;;;4.10;99.90;;;;;;6397146;22;20412;-72
2022/11/21 07:27:49;;;;;;;2.77;1.20;;;4.10;99.90;;;;;;6394865;22;20446;-70
2022/11/21 07:30:16;;;;;;;1.40;1.07;;;4.10;99.90;;;;;;6395957;22;20402;-71
2022/11/21 07:32:43;;;;;;;1.17;0.97;;;4.10;99.90;;;;;;6395414;22;20914;-71
2022/11/21 07:35:11;;;;;;;1.40;0.90;;;4.00;99.90;;;;;;6392802;22;20804;-71
2022/11/21 07:37:39;;;;;;;1.20;0.90;;;4.00;99.90;;;;;;6395722;22;20406;-71
2022/11/21 07:40:07;;;;;;;1.63;0.90;;;4.00;99.90;;;;;;6395813;22;20433;-71
2022/11/21 07:42:35;;;;;;;1.30;1.20;;;4.00;99.90;;;;;;6395370;22;20434;-71
2022/11/21 07:45:03;;;;;;;2.37;0.87;;;4.00;99.90;;;;;;6396092;22;20883;-71
2022/11/21 07:47:29;;;;;;;1.50;1.10;;;3.90;99.90;;;;;;6396318;22;20402;-71
2022/11/21 07:49:56;;;;;;;2.90;0.90;;;3.90;99.90;;;;;;6396231;22;20406;-71
2022/11/21 07:52:24;;;;;;;0.90;0.80;;;3.90;99.90;;;;;;6395871;22;21026;-71
2022/11/21 07:54:51;;;;;;;1.40;0.90;;;3.80;99.90;;;;;;6396691;22;20477;-71
2022/11/21 07:57:21;;;;;;;1.30;0.90;;;3.80;99.90;;;;;;6395417;22;20436;-73
2022/11/21 07:59:50;;;;;;;1.00;0.90;;;3.90;99.90;;;;;;6396394;22;20430;-71
2022/11/21 08:02:19;;;;;;;1.23;0.97;;;4.10;99.90;;;;;;6395675;22;20410;-71
2022/11/21 08:04:46;;;;;;;2.10;1.40;;;3.90;99.90;;;;;;6395398;22;20978;-71
2022/11/21 08:07:13;;;;;;;2.73;1.03;;;4.00;99.90;;;;;;6395661;22;20405;-70
2022/11/21 08:09:40;;;;;;;1.20;0.70;;;3.90;99.90;;;;;;6395076;22;20500;-70
2022/11/21 08:12:12;;;;;;;1.00;0.77;;;3.90;99.90;;;;;;6394960;22;20501;-70
2022/11/21 08:14:40;;;;;;;1.30;0.87;;;3.90;99.90;;;;;;6395088;22;20398;-71
2022/11/21 08:17:08;;;;;;;1.10;0.80;;;3.90;99.90;;;;;;6395681;22;20406;-71
2022/11/21 08:19:35;;;;;;;2.33;0.97;;;3.90;99.90;;;;;;6395018;22;20971;-71
2022/11/21 08:22:02;;;;;;;1.00;0.90;;;3.90;99.90;;;;;;6394883;22;20405;-71
2022/11/21 08:24:29;;;;;;;1.10;1.00;;;3.90;99.90;;;;;;6394631;22;20406;-72
2022/11/21 08:26:56;;;;;;;2.73;0.70;;;3.90;99.90;;;;;;6395834;22;20937;-70
2022/11/21 08:29:23;;;;;;;1.30;1.00;;;4.00;99.90;;;;;;6395032;22;20439;-71
2022/11/21 08:31:49;;;;;;;3.70;1.20;;;4.00;99.90;;;;;;6394838;22;20499;-70
2022/11/21 08:34:18;;;;;;;1.47;1.00;;;4.00;99.90;;;;;;6394905;22;20749;-71
2022/11/21 08:36:45;;;;;;;1.83;1.17;;;4.20;99.90;;;;;;6395003;22;20434;-70
2022/11/21 08:39:12;;;;;;;1.17;1.00;;;4.20;99.90;;;;;;6395052;22;20819;-70
2022/11/21 08:44:23;;;;;;;1.50;0.93;;;4.20;99.90;;;;;;6394436;22;20389;-75
2022/11/21 08:46:50;;;;;;;1.40;1.00;;;4.20;99.90;;;;;;6393663;22;20409;-72
2022/11/21 08:49:23;;;;;;;1.00;0.90;;;4.30;99.90;;;;;;6393988;22;20434;-73
2022/11/21 08:51:50;;;;;;;2.57;1.07;;;4.30;99.90;;;;;;6394866;22;21100;-72
2022/11/21 08:54:18;;;;;;;1.60;0.80;;;4.40;99.90;;;;;;6395087;22;20686;-73
2022/11/21 08:56:45;;;;;;;1.43;1.33;;;4.60;99.90;;;;;;6394856;22;20459;-73
2022/11/21 08:59:12;;;;;;;2.03;1.20;;;4.50;99.90;;;;;;6394941;22;21043;-73
2022/11/21 09:01:39;;;;;;;4.30;1.10;;;4.60;99.90;;;;;;6394613;22;20402;-72
2022/11/21 09:04:06;;;;;;;1.67;1.17;;;4.60;99.90;;;;;;6394429;22;20554;-73
2022/11/21 09:06:35;;;;;;;1.90;1.20;;;4.70;99.90;;;;;;6394430;22;20898;-73
2022/11/21 09:09:04;;;;;;;1.80;1.00;;;4.80;99.90;;;;;;6394471;22;20437;-74
2022/11/21 09:11:31;;;;;;;1.87;1.30;;;4.90;99.90;;;;;;6395558;22;20406;-72
2022/11/21 09:19:28;;;;;;;1.63;1.10;;;4.90;99.90;;;;;;6395020;22;20479;-73
2022/11/21 09:21:57;;;;;;;2.33;1.20;;;5.00;99.90;;;;;;6395195;22;20409;-73
2022/11/21 09:24:24;;;;;;;1.50;1.00;;;4.90;99.90;;;;;;6396455;22;20412;-73
2022/11/21 09:26:51;;;;;;;1.30;1.10;;;5.00;99.90;;;;;;6397510;22;20902;-74
2022/11/21 09:29:18;;;;;;;1.10;1.00;;;5.10;99.90;;;;;;6396940;22;20898;-74
2022/11/21 09:31:45;;;;;;;1.30;1.13;;;5.10;99.90;;;;;;6397269;22;20409;-75
2022/11/21 09:34:12;;;;;;;2.00;1.20;;;5.10;99.90;;;;;;6397003;22;20423;-75
2022/11/21 09:36:39;;;;;;;3.63;1.67;;;5.20;99.90;;;;;;6396835;22;21213;-74
2022/11/21 09:39:07;;;;;;;2.00;1.20;;;5.30;99.90;;;;;;6395227;22;20520;-74
2022/11/21 09:45:04;;;;;;;3.13;1.97;;;5.30;99.90;;;;;;6384419;22;20393;-74
2022/11/21 09:47:33;;;;;;;2.93;1.53;;;5.40;99.90;;;;;;6389908;22;20421;-73
2022/11/21 09:50:02;;;;;;;1.50;1.27;;;5.40;99.90;;;;;;6391088;22;20787;-73
2022/11/21 09:52:37;;;;;;;1.30;1.20;;;5.50;99.90;;;;;;6394314;22;20439;-72
2022/11/21 09:55:07;;;;;;;4.90;1.90;;;5.60;99.90;;;;;;6395400;22;20461;-73
2022/11/21 09:57:35;;;;;;;1.93;1.20;;;5.70;99.90;;;;;;6395923;22;20476;-73
2022/11/21 10:00:13;;;;;;;3.07;2.03;;;5.90;99.90;;;;;;6395463;22;20456;-75
2022/11/21 10:02:40;;;;;;;2.67;1.30;;;6.00;99.90;;;;;;6396246;22;20406;-73
2022/11/21 10:05:13;;;;;;;1.80;1.40;;;6.00;99.90;;;;;;6396207;22;20668;-72
2022/11/21 10:10:35;;;;;;;1.53;1.10;;;6.00;99.90;;;;;;6395294;22;20437;-73
2022/11/21 10:13:23;;;;;;;2.30;1.50;;;6.00;99.90;;;;;;6396467;22;20959;-73
2022/11/21 10:19:04;;;;;;;1.80;1.33;;;6.50;99.90;;;;;;6395142;22;20405;-75
2022/11/21 10:21:52;;;;;;;1.87;1.20;;;6.50;99.90;;;;;;6395841;22;20393;-75
2022/11/21 10:24:33;;;;;;;3.23;1.30;;;6.40;99.90;;;;;;6396083;22;20394;-74
2022/11/21 10:27:06;;;;;;;2.17;1.30;;;6.30;99.90;;;;;;6396347;22;20389;-73
2022/11/21 10:29:37;;;;;;;2.67;1.30;;;6.20;99.90;;;;;;6396117;22;20383;-74
2022/11/21 10:32:18;;;;;;;1.43;1.10;;;6.10;99.90;;;;;;6396854;22;20393;-74
2022/11/21 10:34:46;;;;;;;5.30;1.40;;;6.20;99.90;;;;;;6394844;22;20805;-74
2022/11/21 10:37:19;;;;;;;3.70;1.27;;;6.20;99.90;;;;;;6395773;22;20827;-73
2022/11/21 10:39:50;;;;;;;2.30;1.80;;;6.20;99.90;;;;;;6396486;22;20440;-74
2022/11/21 10:42:30;;;;;;;4.63;1.40;;;6.20;99.90;;;;;;6395975;22;20792;-74
2022/11/21 10:45:16;;;;;;;2.70;1.20;;;6.20;99.90;;;;;;6396372;22;20385;-75
2022/11/21 10:47:44;;;;;;;3.33;1.33;;;6.20;99.90;;;;;;6396465;22;20381;-74
2022/11/21 10:50:38;;;;;;;2.90;1.30;;;6.30;99.90;;;;;;6395948;22;20401;-74
2022/11/21 10:56:06;;;;;;;2.00;1.40;;;6.40;99.90;;;;;;6395036;22;20393;-74
2022/11/21 10:58:40;;;;;;;1.43;1.10;;;6.40;99.90;;;;;;6395401;22;20891;-75
2022/11/21 11:01:22;;;;;;;3.20;1.33;;;6.40;99.90;;;;;;6395993;22;20440;-75
2022/11/21 11:04:06;;;;;;;2.70;1.47;;;6.50;99.90;;;;;;6395078;22;20398;-74
2022/11/21 11:06:33;;;;;;;2.07;1.10;;;6.50;99.90;;;;;;6394760;22;20773;-74
2022/11/21 11:09:00;;;;;;;5.57;1.03;;;6.70;99.90;;;;;;6395370;22;20413;-75
2022/11/21 11:11:27;;;;;;;3.23;1.10;;;6.80;99.90;;;;;;6395069;22;20428;-74
2022/11/21 11:14:00;;;;;;;3.17;1.00;;;6.80;99.90;;;;;;6395470;22;20467;-74
2022/11/21 11:16:29;;;;;;;2.13;1.40;;;6.60;99.90;;;;;;6395219;22;20707;-73
2022/11/21 11:19:00;;;;;;;1.90;1.13;;;6.60;99.90;;;;;;6395220;22;20406;-75
2022/11/21 11:21:36;;;;;;;3.77;1.30;;;6.50;99.90;;;;;;6395669;22;20407;-74
2022/11/21 11:24:20;;;;;;;2.90;1.30;;;6.40;99.90;;;;;;6395189;22;20397;-74
2022/11/21 11:26:52;;;;;;;4.30;1.40;;;6.40;99.90;;;;;;6396598;22;20402;-75
2022/11/21 11:29:23;;;;;;;4.40;1.90;;;6.50;99.90;;;;;;6395541;22;20394;-74
2022/11/21 11:31:54;;;;;;;2.23;1.50;;;6.40;99.90;;;;;;6394914;22;20383;-74
2022/11/21 11:34:22;;;;;;;2.30;1.20;;;6.50;99.90;;;;;;6393806;22;20394;-75
2022/11/21 11:37:11;;;;;;;1.93;1.10;;;6.50;99.90;;;;;;6396988;22;20406;-75
2022/11/21 11:39:41;;;;;;;1.47;1.07;;;6.50;99.90;;;;;;6393614;22;20938;-74
2022/11/21 11:48:20;;;;;;;1.20;1.10;;;6.40;99.90;;;;;;6394298;22;20866;-73
2022/11/21 11:50:50;;;;;;;2.27;1.40;;;6.40;99.90;;;;;;6396075;22;20490;-75
2022/11/21 11:53:20;;;;;;;2.83;1.50;;;6.50;99.90;;;;;;6395646;22;20445;-74
2022/11/21 11:55:52;;;;;;;3.20;1.60;;;6.40;99.90;;;;;;6395770;22;20490;-75
2022/11/21 11:58:25;;;;;;;2.73;1.43;;;6.40;99.90;;;;;;6402147;22;20466;-75
2022/11/21 12:00:59;;;;;;;6.30;1.77;;;6.40;99.90;;;;;;6402208;22;20564;-76
2022/11/21 12:03:36;;;;;;;2.20;1.60;;;6.40;99.90;;;;;;6400265;22;20381;-74
2022/11/21 12:06:17;;;;;;;2.70;1.37;;;6.50;99.90;;;;;;6401115;22;20443;-74
2022/11/21 12:08:51;;;;;;;1.83;1.30;;;6.50;99.90;;;;;;6395340;22;20408;-75
2022/11/21 12:17:24;;;;;;;1.30;1.00;;;6.80;99.90;;;;;;6395123;22;20377;-81
2022/11/21 12:19:54;;;;;;;1.80;1.67;;;7.60;99.90;;;;;;6393809;22;20437;-75
2022/11/21 12:22:21;;;;;;;2.70;1.20;;;8.20;99.90;;;;;;6394848;22;20406;-76
2022/11/21 12:24:48;;;;;;;2.03;1.40;;;8.90;99.90;;;;;;6393157;22;20434;-72
2022/11/21 12:27:28;;;;;;;1.43;1.10;;;9.70;99.90;;;;;;6393030;22;20665;-73
2022/11/21 12:30:23;;;;;;;3.53;1.57;;;10.00;99.90;;;;;;6395034;22;20761;-74
2022/11/21 12:32:57;;;;;;;1.83;1.50;;;9.40;99.90;;;;;;6389138;22;20409;-73
2022/11/21 12:35:58;;;;;;;1.57;1.40;;;9.20;99.90;;;;;;6395163;22;20394;-72
2022/11/21 12:38:40;;;;;;;2.37;1.30;;;8.50;99.90;;;;;;6395117;22;20443;-74
2022/11/21 12:44:07;;;;;;;1.73;1.13;;;8.70;99.90;;;;;;6394197;22;20378;-72
2022/11/21 12:46:43;;;;;;;3.50;1.40;;;9.30;99.90;;;;;;6394588;22;20389;-72
2022/11/21 12:55:17;;;;;;;2.00;1.30;;;12.90;99.90;;;;;;6394590;22;20373;-72
2022/11/21 12:58:03;;;;;;;3.80;1.37;;;13.80;99.90;;;;;;6394573;22;20496;-71
2022/11/21 13:00:41;;;;;;;3.57;1.30;;;13.70;99.90;;;;;;6394027;22;20507;-68
2022/11/21 13:03:35;;;;;;;1.23;1.13;;;12.40;99.90;;;;;;6394337;22;20386;-71
2022/11/21 13:06:05;;;;;;;2.30;1.40;;;11.30;99.90;;;;;;6347685;22;20482;-71
2022/11/21 13:08:36;;;;;;;1.90;1.50;;;9.70;99.90;;;;;;6394843;22;20382;-73
2022/11/21 13:14:12;;;;;;;2.13;1.20;;;8.30;99.90;;;;;;6395801;22;20373;-72
2022/11/21 13:16:45;;;;;;;3.97;1.47;;;9.00;99.90;;;;;;6395367;22;20728;-71
2022/11/21 13:19:21;;;;;;;2.20;1.03;;;8.70;99.90;;;;;;6396641;22;20417;-72
2022/11/21 13:21:53;;;;;;;1.73;1.13;;;10.00;99.90;;;;;;6395463;22;21112;-74
2022/11/21 13:25:03;;;;;;;2.37;1.00;;;11.00;99.90;;;;;;6396134;22;20382;-73
2022/11/21 13:27:34;;;;;;;1.50;1.10;;;10.20;99.90;;;;;;6395525;22;21107;-72
2022/11/21 13:30:34;;;;;;;1.73;1.00;;;11.20;99.90;;;;;;6395602;22;20425;-73
2022/11/21 13:33:01;;;;;;;1.17;1.07;;;11.00;99.90;;;;;;6395132;22;20386;-73
2022/11/21 13:36:05;;;;;;;1.73;1.20;;;10.40;99.90;;;;;;6395591;22;20467;-73
2022/11/21 13:39:27;;;;;;;5.30;2.80;;;10.30;99.90;;;;;;6392199;22;20500;-73
2022/11/21 13:45:22;;;;;;;4.60;1.33;;;11.10;99.90;;;;;;6395352;22;20388;-75
2022/11/21 13:48:08;;;;;;;1.50;1.10;;;10.80;99.90;;;;;;6394959;22;20730;-71
2022/11/21 13:51:03;;;;;;;1.70;1.20;;;11.10;99.90;;;;;;6394855;22;20394;-72
2022/11/21 13:53:50;;;;;;;2.73;1.10;;;11.30;99.90;;;;;;6397020;22;20422;-74
2022/11/21 13:56:35;;;;;;;1.10;1.00;;;10.10;99.90;;;;;;6394848;22;20386;-73
2022/11/21 13:59:22;;;;;;;1.47;1.37;;;9.70;99.90;;;;;;6393644;22;20414;-72
2022/11/21 14:01:57;;;;;;;3.53;1.70;;;;;;;;;;6393744;22;20429;-73
2022/11/21 14:05:00;;;;;;;2.63;0.93;;;8.10;99.90;;;;;;6393693;22;20412;-72
2022/11/21 14:07:30;;;;;;;1.00;0.90;;;8.50;99.90;;;;;;6394234;22;20694;-72
2022/11/21 14:10:01;;;;;;;3.90;1.50;;;8.30;99.90;;;;;;6394273;22;20445;-72
2022/11/21 14:12:31;;;;;;;2.43;1.40;;;7.80;99.90;;;;;;6393861;22;20847;-72
2022/11/21 14:15:17;;;;;;;2.30;1.20;;;7.80;99.90;;;;;;6394012;22;20861;-73
2022/11/21 14:17:46;;;;;;;1.77;1.30;;;7.60;99.90;;;;;;6394485;22;20416;-74
2022/11/21 14:20:20;;;;;;;1.60;1.30;;;7.70;99.90;;;;;;6393840;22;20520;-73
2022/11/21 14:25:47;;;;;;;2.57;1.40;;;8.00;99.90;;;;;;6394895;22;20402;-73
2022/11/21 14:28:22;;;;;;;1.30;1.20;;;7.60;99.90;;;;;;6395068;22;20382;-73
2022/11/21 14:30:55;;;;;;;1.97;0.90;;;7.90;99.90;;;;;;6394850;22;20454;-73
2022/11/21 14:33:33;;;;;;;3.17;1.00;;;8.10;99.90;;;;;;6395621;22;20863;-74
2022/11/21 14:36:04;;;;;;;1.27;1.00;;;7.60;99.90;;;;;;6395280;22;20401;-72
2022/11/21 14:38:36;;;;;;;1.90;1.03;;;7.60;99.90;;;;;;6395000;22;20405;-72
2022/11/21 14:41:25;;;;;;;3.73;1.30;;;7.80;99.90;;;;;;6396180;22;20494;-73
2022/11/21 14:44:05;;;;;;;0.77;0.60;;;7.70;99.90;;;;;;6396783;22;20385;-72
2022/11/21 14:46:35;;;;;;;1.63;1.20;;;7.20;99.90;;;;;;6396580;22;20386;-73
2022/11/21 14:49:18;;;;;;;5.33;1.67;;;6.90;99.90;;;;;;6396946;22;20462;-73
2022/11/21 14:51:48;;;;;;;2.60;1.90;;;7.30;99.90;;;;;;6395433;22;20409;-82
2022/11/21 14:54:17;;;;;;;2.70;1.20;;;7.30;99.90;;;;;;6395345;22;20863;-77
2022/11/21 14:56:48;;;;;;;5.00;1.30;;;7.00;99.90;;;;;;6395977;22;20494;-79
2022/11/21 14:59:24;;;;;;;3.03;1.40;;;7.00;99.90;;;;;;6395822;22;20406;-77
2022/11/21 15:02:01;;;;;;;2.83;1.60;;;7.20;99.90;;;;;;6395074;22;20441;-77
2022/11/21 15:04:31;;;;;;;3.13;1.40;;;7.10;99.90;;;;;;6395453;22;20396;-77
2022/11/21 15:06:59;;;;;;;2.30;1.20;;;6.90;99.90;;;;;;6394955;22;20447;-78
2022/11/21 15:09:32;;;;;;;2.50;1.80;;;7.00;99.90;;;;;;6395481;22;20421;-76
2022/11/21 15:12:04;;;;;;;2.17;1.40;;;6.80;99.90;;;;;;6389107;22;20450;-75
2022/11/21 15:14:37;;;;;;;1.50;1.07;;;7.00;99.90;;;;;;6392477;22;20386;-74
2022/11/21 15:17:08;;;;;;;2.40;1.30;;;7.00;99.90;;;;;;6391116;22;20890;-75
2022/11/21 15:19:35;;;;;;;4.87;1.83;;;6.90;99.90;;;;;;6392018;22;20390;-77
2022/11/21 15:22:04;;;;;;;3.20;1.90;;;7.10;99.90;;;;;;6391412;22;20490;-74
2022/11/21 15:24:41;;;;;;;5.40;3.77;;;6.00;99.90;;;;;;6392699;22;20723;-74
2022/11/21 15:27:30;;;;;;;4.03;2.47;;;5.80;99.90;;;;;;6394662;22;20393;-77
2022/11/21 15:30:20;;;;;;;1.80;1.70;;;;;;;;;;6394462;22;20398;-75
2022/11/21 15:33:04;;;;;;;2.37;2.17;;;;;;;;;;6384485;22;20485;-74
2022/11/21 15:35:45;;;;;;;1.87;1.63;;;;;;;;;;6392920;22;20398;-72
2022/11/21 15:38:17;;;;;;;3.00;1.83;;;;;;;;;;6393098;22;20394;-74
2022/11/21 15:40:56;;;;;;;3.90;2.07;;;;;;;;;;6392886;22;20450;-73
2022/11/21 15:43:43;;;;;;;4.73;2.77;;;;;;;;;;6392709;22;20462;-73
2022/11/21 15:46:19;;;;;;;3.03;1.93;;;;;;;;;;6392158;22;20426;-73
2022/11/21 15:48:47;;;;;;;5.00;1.80;;;;;;;;;;6391992;22;20494;-74
2022/11/21 15:51:14;;;;;;;3.50;1.80;;;;;;;;;;6391384;22;21239;-73
2022/11/21 15:53:41;;;;;;;2.00;1.60;;;;;;;;;;6391697;22;21007;-73
2022/11/21 15:56:10;;;;;;;3.20;1.80;;;;;;;;;;6392043;22;20405;-74
2022/11/21 15:58:38;;;;;;;3.37;1.90;;;;;;;;;;6391839;22;20934;-72
2022/11/21 16:01:05;;;;;;;2.40;1.73;;;;;;;;;;6393471;22;20524;-74
2022/11/21 16:03:38;;;;;;;5.83;3.00;;;;;;;;;;6390066;22;20914;-76
2022/11/21 16:06:06;;;;;;;3.37;1.60;;;;;;;;;;6390312;22;20417;-77
2022/11/21 16:08:33;;;;;;;3.50;1.80;;;;;;;;;;6392165;22;20919;-74
2022/11/21 16:11:00;;;;;;;2.00;1.80;;;;;;;;;;6387613;22;20479;-74
2022/11/21 16:13:28;;;;;;;2.07;1.80;;;;;;;;;;6387238;22;20409;-73
2022/11/21 16:15:55;;;;;;;2.87;2.10;;;;;;;;;;6389192;22;20401;-74
2022/11/21 16:18:22;;;;;;;2.13;1.80;;;;;;;;;;6388810;22;20409;-75
2022/11/21 16:20:51;;;;;;;11.53;2.30;;;;;;;;;;6390807;22;20452;-75
2022/11/21 16:23:18;;;;;;;2.90;1.83;;;;;;;;;;6390267;22;20455;-75
2022/11/21 16:25:54;;;;;;;3.23;2.10;;;;;;;;;;6391036;22;20922;-75
2022/11/21 16:28:22;;;;;;;4.27;2.20;;;;;;;;;;6389967;22;20393;-74
2022/11/21 16:30:49;;;;;;;2.43;2.07;;;;;;;;;;6389101;22;20386;-74
2022/11/21 16:33:16;;;;;;;3.60;2.00;;;;;;;;;;6391296;22;20402;-74
2022/11/21 16:35:43;;;;;;;4.83;2.73;;;;;;;;;;6392049;22;20493;-77
2022/11/21 16:38:12;;;;;;;4.13;2.23;;;;;;;;;;6395340;22;20414;-75
2022/11/21 16:40:39;;;;;;;3.30;2.07;;;;;;;;;;6394873;22;20413;-72
2022/11/21 16:43:10;;;;;;;5.70;2.50;;;;;;;;;;6391965;22;20406;-73
2022/11/21 16:45:38;;;;;;;3.93;2.80;;;;;;;;;;6391241;22;20458;-74
2022/11/21 16:48:07;;;;;;;2.50;2.30;;;;;;;;;;6390237;22;20413;-75
2022/11/21 16:50:35;;;;;;;4.27;2.77;;;;;;;;;;6391463;22;20405;-73
2022/11/21 16:53:02;;;;;;;4.30;3.33;;;;;;;;;;6391125;22;20471;-73
2022/11/21 16:55:31;;;;;;;3.93;3.27;;;;;;;;;;6390750;22;20972;-74
2022/11/21 16:57:58;;;;;;;3.77;2.33;;;;;;;;;;6391155;22;20420;-73
2022/11/21 17:00:26;;;;;;;6.93;2.13;;;;;;;;;;6391104;22;20410;-73
2022/11/21 17:02:54;;;;;;;5.60;3.07;;;;;;;;;;6392157;22;20520;-74
2022/11/21 17:05:22;;;;;;;4.00;3.43;;;;;;;;;;6391907;22;20444;-73
2022/11/21 17:07:49;;;;;;;6.20;2.80;;;;;;;;;;6391030;22;20502;-74
2022/11/21 17:10:16;;;;;;;3.10;2.83;;;;;;;;;;6391506;22;20421;-74
2022/11/21 17:12:45;;;;;;;3.70;3.10;;;;;;;;;;6392184;22;20774;-73
2022/11/21 17:15:15;;;;;;;4.63;4.10;;;;;;;;;;6401019;22;20397;-73
2022/11/21 17:17:43;;;;;;;6.60;2.97;;;;;;;;;;6391215;22;20406;-74
2022/11/21 17:20:10;;;;;;;3.47;2.27;;;;;;;;;;6396531;22;20604;-74
2022/11/21 17:22:38;;;;;;;2.47;2.27;;;;;;;;;;6393033;22;20738;-75